Nearby METAR Reports

 

LFTH - Hyeres/Le Palyve, France
Distance from station: OSO 12km
Mise jour: 23/09/2018 01:00
clair
clair
 Wind from N
Vent: N 6 km/h
Temprature: 18°C
Point de rose: 14°C
Humidit: 78%
Baromtre: 1018 hPa
Rsum: clair
Visibility: greater than 10 km
2018/09/22 23:00 LFTH 222300Z AUTO 01003KT CAVOK 18/14 Q1018 NOSIG
LFMC - Le Luc/Le Cannet, France
Distance from station: NNE 26km
Mise jour: 23/09/2018 01:00

 Wind from varies
Vent: varies 2 km/h
Temprature: 18°C
Point de rose: 12°C
Humidit: 68%
Baromtre: 1018 hPa
2018/09/22 23:00 LFMC 222300Z AUTO VRB01KT //// // ////// 18/12 Q1018